createdAt,value
2022-07-29T00:00:12.217Z,70.35
2022-07-29T00:03:01.519Z,70.17
2022-07-29T00:05:31.066Z,71.17
2022-07-29T00:08:00.260Z,70.40
2022-07-29T00:10:29.996Z,70.98
2022-07-29T00:13:00.715Z,70.81
2022-07-29T00:15:29.792Z,70.39
2022-07-29T00:18:00.444Z,70.82
2022-07-29T00:20:29.427Z,70.64
2022-07-29T00:22:58.758Z,72.11
2022-07-29T00:25:28.054Z,71.37
2022-07-29T00:27:57.134Z,71.14
2022-07-29T00:30:27.670Z,70.71
2022-07-29T00:32:57.139Z,71.32
2022-07-29T00:35:44.197Z,71.22
2022-07-29T00:38:14.683Z,70.86
2022-07-29T00:40:44.498Z,71.35
2022-07-29T00:43:14.871Z,71.69
2022-07-29T00:45:45.905Z,70.70
2022-07-29T00:48:15.398Z,70.32
2022-07-29T00:50:44.465Z,70.92
2022-07-29T00:53:15.091Z,70.98
2022-07-29T00:55:44.397Z,70.22
2022-07-29T00:58:16.016Z,70.32
2022-07-29T01:00:46.936Z,70.35
2022-07-29T01:03:16.246Z,70.75
2022-07-29T01:05:49.656Z,71.72
2022-07-29T01:08:21.347Z,71.29
2022-07-29T01:10:51.363Z,70.99
2022-07-29T01:13:21.420Z,70.35
2022-07-29T01:15:58.785Z,70.27
2022-07-29T01:18:34.196Z,71.24
2022-07-29T01:21:37.605Z,70.77
2022-07-29T01:24:24.654Z,70.07
2022-07-29T01:26:59.446Z,70.46
2022-07-29T01:29:36.036Z,70.65
2022-07-29T01:32:20.299Z,70.79
2022-07-29T01:35:04.402Z,72.18
2022-07-29T01:37:40.694Z,71.48
2022-07-29T01:40:20.881Z,72.05
2022-07-29T01:42:54.645Z,71.60
2022-07-29T01:45:31.686Z,72.77
2022-07-29T01:48:05.367Z,72.13
2022-07-29T01:50:40.155Z,71.63
2022-07-29T01:53:11.808Z,72.50
2022-07-29T01:55:44.857Z,72.50
2022-07-29T01:58:17.118Z,71.75
2022-07-29T02:00:52.640Z,71.93
2022-07-29T02:03:23.425Z,72.05
2022-07-29T02:05:55.007Z,71.17
2022-07-29T02:08:25.288Z,70.72
2022-07-29T02:10:57.197Z,70.08
2022-07-29T02:13:28.254Z,70.49
2022-07-29T02:16:00.493Z,70.68
2022-07-29T02:18:32.572Z,70.65
2022-07-29T02:21:03.105Z,70.71
2022-07-29T02:23:45.307Z,70.61
2022-07-29T02:26:22.576Z,71.83
2022-07-29T02:28:54.745Z,71.67
2022-07-29T02:31:28.599Z,71.38
2022-07-29T02:33:59.498Z,71.81
2022-07-29T02:36:30.343Z,71.12
2022-07-29T02:39:01.769Z,71.07
2022-07-29T02:41:33.046Z,70.61
2022-07-29T02:44:11.895Z,70.37
2022-07-29T02:46:50.387Z,70.65
2022-07-29T02:49:30.494Z,70.48
2022-07-29T02:52:03.655Z,70.36
2022-07-29T02:54:41.157Z,70.49
2022-07-29T02:57:21.095Z,70.09
2022-07-29T02:59:53.825Z,71.62
2022-07-29T03:02:24.810Z,70.54
2022-07-29T03:04:56.094Z,70.69
2022-07-29T03:07:28.279Z,70.64
2022-07-29T03:09:58.916Z,70.47
2022-07-29T03:16:50.586Z,70.75
2022-07-29T03:19:21.625Z,70.58
2022-07-29T03:21:51.251Z,70.30
2022-07-29T03:24:31.743Z,69.68
2022-07-29T03:27:01.165Z,69.72
2022-07-29T03:29:33.856Z,70.90
2022-07-29T03:32:08.292Z,70.25
2022-07-29T03:34:39.762Z,69.95
2022-07-29T03:37:09.330Z,70.27
2022-07-29T03:39:43.273Z,69.96
2022-07-29T03:42:16.058Z,70.57
2022-07-29T03:44:47.814Z,70.80
2022-07-29T03:47:18.075Z,70.28
2022-07-29T03:49:52.661Z,69.56
2022-07-29T03:52:22.085Z,69.68
2022-07-29T03:54:51.874Z,69.25
2022-07-29T03:57:22.766Z,68.86
2022-07-29T03:59:53.354Z,68.72
2022-07-29T04:02:30.852Z,69.08
2022-07-29T04:05:02.049Z,70.39
2022-07-29T04:08:03.299Z,70.18
2022-07-29T04:10:34.173Z,69.53
2022-07-29T04:13:05.130Z,69.91
2022-07-29T04:15:34.560Z,69.79
2022-07-29T04:18:03.843Z,69.64
2022-07-29T04:20:34.422Z,70.13
2022-07-29T04:23:04.116Z,70.58
2022-07-29T04:25:33.414Z,69.85
2022-07-29T04:28:02.482Z,69.60
2022-07-29T04:30:32.710Z,69.90
2022-07-29T04:33:01.949Z,68.98
2022-07-29T04:35:38.326Z,68.17
2022-07-29T04:38:15.530Z,68.24
2022-07-29T04:40:45.498Z,68.33
2022-07-29T04:43:17.145Z,67.61
2022-07-29T04:45:52.430Z,67.79
2022-07-29T04:48:26.733Z,67.04
2022-07-29T04:50:58.677Z,67.93
2022-07-29T04:53:29.709Z,67.12
2022-07-29T04:55:58.846Z,67.23
2022-07-29T04:58:28.000Z,66.68
2022-07-29T05:00:57.339Z,65.25
2022-07-29T05:03:26.294Z,66.15
2022-07-29T05:05:55.217Z,65.98
2022-07-29T05:08:24.315Z,66.03
2022-07-29T05:10:54.859Z,66.08
2022-07-29T05:13:23.768Z,66.30
2022-07-29T05:15:53.068Z,65.89
2022-07-29T05:18:22.060Z,65.28
2022-07-29T05:20:55.696Z,65.98
2022-07-29T05:23:24.775Z,65.41
2022-07-29T05:25:55.221Z,66.32
2022-07-29T05:28:24.772Z,66.15
2022-07-29T05:30:53.672Z,65.81
2022-07-29T05:33:34.885Z,65.83
2022-07-29T05:36:07.885Z,65.98
2022-07-29T05:38:38.101Z,63.67
2022-07-29T05:41:08.752Z,63.20
2022-07-29T05:43:38.073Z,62.86
2022-07-29T05:46:07.295Z,62.52
2022-07-29T05:48:36.657Z,62.74
2022-07-29T05:51:05.981Z,60.99
2022-07-29T05:53:35.157Z,59.68
2022-07-29T05:56:08.366Z,60.15
2022-07-29T05:58:37.798Z,59.56
2022-07-29T06:01:07.125Z,58.04
2022-07-29T06:03:38.783Z,58.39
2022-07-29T06:06:08.313Z,56.75
2022-07-29T06:08:38.197Z,56.41
2022-07-29T06:11:09.606Z,57.38
2022-07-29T06:13:39.001Z,56.95
2022-07-29T06:16:08.315Z,56.35
2022-07-29T06:18:37.277Z,56.88
2022-07-29T06:21:11.815Z,56.33
2022-07-29T06:23:41.676Z,56.06
2022-07-29T06:26:12.243Z,55.19
2022-07-29T06:28:41.119Z,55.33
2022-07-29T06:31:10.568Z,55.49
2022-07-29T06:33:39.815Z,56.67
2022-07-29T06:36:09.536Z,55.19
2022-07-29T06:38:44.855Z,54.11
2022-07-29T06:41:20.145Z,53.32
2022-07-29T06:43:52.612Z,53.76
2022-07-29T06:46:24.786Z,53.91
2022-07-29T06:48:54.899Z,52.99
2022-07-29T06:51:24.875Z,52.37
2022-07-29T06:53:59.896Z,53.61
2022-07-29T06:56:39.572Z,52.85
2022-07-29T06:59:10.907Z,51.42
2022-07-29T07:01:42.091Z,50.92
2022-07-29T07:04:12.249Z,51.70
2022-07-29T07:06:41.909Z,51.45
2022-07-29T07:09:11.061Z,51.38
2022-07-29T07:11:41.492Z,50.42
2022-07-29T07:14:10.934Z,51.48
2022-07-29T07:16:40.110Z,51.23
2022-07-29T07:19:09.395Z,49.88
2022-07-29T07:21:38.653Z,49.76
2022-07-29T07:24:08.697Z,49.53
2022-07-29T07:26:37.800Z,50.49
2022-07-29T07:29:08.535Z,49.59
2022-07-29T07:31:39.365Z,48.47
2022-07-29T07:34:08.652Z,47.76
2022-07-29T07:36:38.019Z,49.70
2022-07-29T07:39:07.244Z,49.82
2022-07-29T07:41:36.904Z,49.84
2022-07-29T07:44:07.337Z,49.67
2022-07-29T07:46:36.734Z,49.18
2022-07-29T07:49:07.818Z,48.08
2022-07-29T07:51:36.935Z,49.50
2022-07-29T07:54:06.097Z,47.57
2022-07-29T07:56:36.548Z,46.13
2022-07-29T07:59:05.660Z,47.36
2022-07-29T08:01:54.970Z,45.66
2022-07-29T08:04:28.432Z,47.93
2022-07-29T08:06:58.965Z,45.78
2022-07-29T08:09:30.850Z,46.00
2022-07-29T08:12:01.962Z,46.96
2022-07-29T08:14:31.237Z,45.85
2022-07-29T08:17:02.029Z,45.80
2022-07-29T08:19:31.187Z,45.13
2022-07-29T08:22:00.427Z,42.12
2022-07-29T08:24:53.427Z,42.68
2022-07-29T08:27:43.066Z,42.76
2022-07-29T08:30:14.655Z,43.21
2022-07-29T08:32:54.483Z,42.58
2022-07-29T08:35:25.597Z,42.48
2022-07-29T08:37:55.434Z,44.09
2022-07-29T08:40:30.508Z,42.38
2022-07-29T08:43:06.720Z,41.25
2022-07-29T08:45:48.049Z,41.26
2022-07-29T08:48:21.179Z,42.68
2022-07-29T08:50:54.885Z,42.07
2022-07-29T08:53:27.403Z,41.92
2022-07-29T08:55:57.133Z,38.75
2022-07-29T08:58:27.607Z,38.86
2022-07-29T09:00:58.402Z,40.69
2022-07-29T09:03:33.580Z,39.33
2022-07-29T09:06:03.140Z,39.73
2022-07-29T09:08:34.080Z,39.22
2022-07-29T09:11:05.733Z,39.24
2022-07-29T09:13:35.302Z,38.14
2022-07-29T09:16:09.337Z,39.63
2022-07-29T09:18:42.529Z,38.33
2022-07-29T09:21:30.652Z,40.85
2022-07-29T09:24:05.264Z,38.98
2022-07-29T09:26:35.532Z,39.76
2022-07-29T09:29:12.103Z,38.08
2022-07-29T09:31:42.784Z,38.63
2022-07-29T09:34:14.642Z,37.65
2022-07-29T09:36:45.051Z,38.28
2022-07-29T09:39:15.459Z,38.58
2022-07-29T09:41:48.551Z,38.38
2022-07-29T09:44:19.327Z,36.83
2022-07-29T09:47:07.232Z,38.75
2022-07-29T09:49:51.749Z,35.32
2022-07-29T09:52:21.151Z,36.81
2022-07-29T09:54:51.230Z,36.30
2022-07-29T09:57:30.949Z,37.87
2022-07-29T10:00:02.597Z,37.59
2022-07-29T10:02:42.644Z,37.47
2022-07-29T10:05:22.635Z,38.79
2022-07-29T10:07:54.258Z,38.53
2022-07-29T10:10:27.840Z,38.81
2022-07-29T10:13:03.046Z,38.42
2022-07-29T10:15:40.671Z,38.65
2022-07-29T10:18:10.511Z,38.23
2022-07-29T10:20:42.040Z,36.12
2022-07-29T10:23:12.124Z,35.68
2022-07-29T10:25:45.916Z,35.19
2022-07-29T10:28:16.742Z,34.13
2022-07-29T10:30:48.083Z,35.65
2022-07-29T10:33:35.356Z,33.01
2022-07-29T10:36:24.813Z,32.96
2022-07-29T10:39:03.996Z,31.40
2022-07-29T10:41:49.746Z,30.49
2022-07-29T10:44:23.123Z,29.51
2022-07-29T10:46:54.819Z,24.84
2022-07-29T10:49:27.242Z,24.96
2022-07-29T10:52:07.649Z,25.85
2022-07-29T10:54:46.131Z,24.68
2022-07-29T10:57:21.606Z,24.85
2022-07-29T11:00:29.868Z,23.05
2022-07-29T11:02:59.491Z,22.67
2022-07-29T11:05:39.923Z,22.57
2022-07-29T11:08:26.141Z,22.75
2022-07-29T11:11:11.762Z,22.39
2022-07-29T11:13:52.593Z,20.18
2022-07-29T11:16:25.279Z,21.48
2022-07-29T11:19:29.842Z,21.29
2022-07-29T11:21:59.996Z,20.71
2022-07-29T11:24:33.421Z,20.87
2022-07-29T11:27:20.106Z,20.42
2022-07-29T11:29:55.540Z,18.77
2022-07-29T11:32:29.561Z,19.53
2022-07-29T11:35:19.014Z,19.44
2022-07-29T11:37:52.472Z,19.52
2022-07-29T11:40:28.685Z,18.41
2022-07-29T11:42:59.173Z,17.77
2022-07-29T11:45:46.789Z,19.78
2022-07-29T11:48:27.719Z,18.45
2022-07-29T11:50:59.586Z,17.72
2022-07-29T11:53:32.416Z,16.15
2022-07-29T11:56:04.055Z,17.00
2022-07-29T11:58:34.380Z,17.78
2022-07-29T12:01:05.034Z,15.57
2022-07-29T12:03:36.945Z,17.22
2022-07-29T12:06:14.838Z,16.88
2022-07-29T12:08:45.276Z,17.70
2022-07-29T12:11:23.461Z,15.53
2022-07-29T12:13:53.386Z,14.73
2022-07-29T12:16:25.573Z,17.09
2022-07-29T12:19:00.158Z,15.86
2022-07-29T12:21:29.857Z,18.69
2022-07-29T12:24:05.888Z,17.16
2022-07-29T12:26:51.935Z,17.41
2022-07-29T12:29:34.668Z,18.19
2022-07-29T12:32:14.528Z,17.13
2022-07-29T12:34:44.524Z,15.54
2022-07-29T12:37:14.637Z,16.32
2022-07-29T12:39:43.899Z,16.35
2022-07-29T12:42:19.216Z,16.27
2022-07-29T12:44:49.930Z,17.53
2022-07-29T12:47:20.768Z,17.93
2022-07-29T12:49:51.058Z,15.00
2022-07-29T12:52:31.913Z,15.61
2022-07-29T12:55:01.970Z,17.45
2022-07-29T12:57:47.077Z,18.38
2022-07-29T13:00:17.562Z,19.92
2022-07-29T13:02:57.639Z,22.11
2022-07-29T13:05:41.536Z,24.74
2022-07-29T13:08:21.932Z,25.82
2022-07-29T13:10:51.865Z,26.96
2022-07-29T13:13:22.555Z,26.17
2022-07-29T13:16:09.049Z,26.66
2022-07-29T13:18:38.654Z,27.73
2022-07-29T13:21:14.504Z,27.43
2022-07-29T13:23:44.618Z,29.44
2022-07-29T13:26:14.549Z,28.94
2022-07-29T13:28:45.142Z,32.03
2022-07-29T13:31:14.383Z,32.67
2022-07-29T13:33:43.559Z,32.53
2022-07-29T13:36:12.563Z,32.43
2022-07-29T13:38:41.732Z,32.28
2022-07-29T13:41:10.814Z,32.58
2022-07-29T13:43:39.714Z,33.87
2022-07-29T13:46:10.608Z,34.54
2022-07-29T13:48:39.866Z,34.59
2022-07-29T13:51:08.727Z,35.75
2022-07-29T13:53:38.000Z,35.18
2022-07-29T13:56:07.918Z,36.00
2022-07-29T13:58:37.497Z,37.21
2022-07-29T14:01:06.803Z,37.27
2022-07-29T14:03:41.800Z,38.30
2022-07-29T14:06:15.491Z,37.68
2022-07-29T14:08:47.451Z,38.47
2022-07-29T14:11:16.609Z,38.95
2022-07-29T14:13:45.583Z,32.91
2022-07-29T14:16:14.675Z,31.41
2022-07-29T14:18:45.488Z,32.47
2022-07-29T14:21:15.403Z,34.33
2022-07-29T14:23:44.686Z,34.00
2022-07-29T14:26:21.479Z,31.36
2022-07-29T14:28:53.727Z,29.02
2022-07-29T14:31:22.873Z,27.58
2022-07-29T14:33:53.206Z,29.40
2022-07-29T14:36:22.506Z,26.15
2022-07-29T14:38:51.848Z,24.67
2022-07-29T14:41:22.637Z,26.01
2022-07-29T14:43:53.360Z,24.03
2022-07-29T14:46:22.670Z,24.85
2022-07-29T14:48:53.189Z,22.43
2022-07-29T14:51:22.450Z,24.28
2022-07-29T14:53:51.453Z,21.87
2022-07-29T14:56:36.512Z,23.17
2022-07-29T14:59:06.871Z,25.77
2022-07-29T15:01:36.155Z,22.54
2022-07-29T15:04:06.698Z,25.69
2022-07-29T15:06:37.350Z,24.90
2022-07-29T15:09:06.638Z,24.36
2022-07-29T15:11:38.275Z,25.74
2022-07-29T15:14:08.616Z,26.01
2022-07-29T15:16:39.298Z,25.49
2022-07-29T15:19:13.145Z,28.37
2022-07-29T15:21:48.762Z,31.87
2022-07-29T15:24:18.600Z,33.35
2022-07-29T15:26:48.231Z,33.67
2022-07-29T15:29:17.637Z,34.59
2022-07-29T15:31:47.144Z,34.51
2022-07-29T15:34:17.793Z,35.18
2022-07-29T15:36:52.374Z,36.33
2022-07-29T15:39:22.934Z,37.12
2022-07-29T15:41:53.410Z,37.84
2022-07-29T15:44:23.193Z,37.68
2022-07-29T15:47:07.433Z,38.21
2022-07-29T15:49:46.623Z,38.43
2022-07-29T15:52:25.223Z,40.20
2022-07-29T15:54:56.737Z,39.91
2022-07-29T15:57:26.857Z,39.80
2022-07-29T15:59:56.268Z,38.38
2022-07-29T16:02:25.331Z,37.35
2022-07-29T16:04:55.710Z,36.09
2022-07-29T16:07:25.027Z,35.55
2022-07-29T16:10:00.568Z,34.14
2022-07-29T16:12:29.707Z,32.89
2022-07-29T16:14:58.706Z,32.55
2022-07-29T16:17:28.178Z,31.87
2022-07-29T16:20:00.217Z,33.93
2022-07-29T16:22:29.549Z,36.52
2022-07-29T16:24:58.472Z,35.74
2022-07-29T16:27:37.397Z,37.90
2022-07-29T16:30:09.765Z,39.71
2022-07-29T16:32:40.522Z,39.11
2022-07-29T16:35:11.590Z,40.10
2022-07-29T16:37:41.280Z,41.46
2022-07-29T16:40:11.491Z,42.75
2022-07-29T16:42:46.953Z,42.14
2022-07-29T16:45:18.074Z,41.85
2022-07-29T16:47:51.034Z,41.22
2022-07-29T16:50:21.974Z,42.11
2022-07-29T16:52:51.848Z,42.11
2022-07-29T16:55:21.068Z,43.06
2022-07-29T16:57:50.415Z,44.66
2022-07-29T17:00:20.614Z,45.28
2022-07-29T17:02:49.855Z,45.44
2022-07-29T17:05:20.131Z,45.50
2022-07-29T17:07:51.434Z,45.56
2022-07-29T17:10:20.972Z,45.26
2022-07-29T17:12:50.439Z,45.97
2022-07-29T17:15:19.678Z,46.29
2022-07-29T17:17:56.443Z,46.19
2022-07-29T17:20:27.904Z,46.06
2022-07-29T17:22:57.160Z,46.15
2022-07-29T17:25:26.369Z,45.88
2022-07-29T17:28:00.594Z,45.89
2022-07-29T17:30:30.190Z,46.58
2022-07-29T17:32:59.465Z,47.22
2022-07-29T17:35:47.014Z,47.75
2022-07-29T17:38:16.303Z,49.11
2022-07-29T17:40:45.408Z,49.75
2022-07-29T17:43:14.275Z,50.11
2022-07-29T17:45:49.803Z,50.27
2022-07-29T17:48:20.584Z,50.87
2022-07-29T17:50:51.511Z,51.10
2022-07-29T17:53:20.778Z,51.34
2022-07-29T17:55:50.210Z,51.58
2022-07-29T17:58:19.670Z,51.44
2022-07-29T18:00:48.747Z,51.19
2022-07-29T18:03:17.824Z,51.42
2022-07-29T18:05:47.071Z,52.50
2022-07-29T18:08:18.187Z,52.11
2022-07-29T18:10:48.157Z,52.62
2022-07-29T18:13:17.887Z,52.63
2022-07-29T18:15:47.991Z,53.24
2022-07-29T18:18:18.599Z,53.16
2022-07-29T18:20:48.354Z,54.40
2022-07-29T18:23:20.085Z,54.53
2022-07-29T18:25:49.532Z,55.14
2022-07-29T18:28:18.703Z,54.90
2022-07-29T18:30:47.638Z,54.56
2022-07-29T18:33:21.737Z,54.61
2022-07-29T18:36:07.681Z,54.88
2022-07-29T18:38:42.424Z,55.14
2022-07-29T18:41:11.770Z,55.89
2022-07-29T18:43:40.807Z,55.20
2022-07-29T18:46:09.997Z,55.13
2022-07-29T18:48:39.469Z,56.08
2022-07-29T18:51:10.039Z,55.81
2022-07-29T18:53:39.371Z,56.38
2022-07-29T18:56:12.028Z,56.13
2022-07-29T18:58:41.367Z,57.10
2022-07-29T19:01:14.752Z,57.03
2022-07-29T19:03:46.537Z,56.83
2022-07-29T19:06:15.582Z,57.09
2022-07-29T19:08:44.558Z,57.91
2022-07-29T19:11:15.319Z,58.16
2022-07-29T19:13:45.757Z,58.50
2022-07-29T19:16:15.067Z,58.19
2022-07-29T19:18:44.763Z,58.56
2022-07-29T19:21:14.019Z,58.56
2022-07-29T19:24:00.151Z,59.14
2022-07-29T19:26:36.632Z,59.09
2022-07-29T19:29:06.250Z,59.30
2022-07-29T19:31:36.714Z,59.35
2022-07-29T19:34:05.871Z,59.50
2022-07-29T19:36:35.327Z,60.67
2022-07-29T19:39:04.878Z,60.98
2022-07-29T19:41:35.582Z,61.33
2022-07-29T19:44:04.884Z,61.14
2022-07-29T19:46:33.918Z,62.19
2022-07-29T19:49:02.987Z,62.81
2022-07-29T19:51:32.348Z,64.37
2022-07-29T19:54:01.556Z,63.69
2022-07-29T19:56:31.947Z,62.90
2022-07-29T19:59:03.320Z,62.77
2022-07-29T20:01:37.417Z,64.02
2022-07-29T20:04:08.393Z,64.04
2022-07-29T20:06:37.373Z,64.72
2022-07-29T20:09:06.780Z,63.61
2022-07-29T20:11:38.877Z,64.14
2022-07-29T20:14:09.396Z,63.81
2022-07-29T20:16:38.531Z,65.33
2022-07-29T20:19:07.571Z,64.45
2022-07-29T20:21:36.763Z,64.78
2022-07-29T20:24:06.545Z,65.88
2022-07-29T20:26:35.822Z,65.55
2022-07-29T20:29:05.418Z,65.82
2022-07-29T20:31:36.121Z,65.59
2022-07-29T20:34:05.612Z,66.15
2022-07-29T20:36:34.649Z,66.66
2022-07-29T20:39:04.060Z,66.69
2022-07-29T20:41:33.974Z,66.88
2022-07-29T20:44:03.747Z,66.55
2022-07-29T20:46:32.923Z,66.11
2022-07-29T20:49:06.835Z,65.72
2022-07-29T20:51:43.291Z,66.03
2022-07-29T20:54:13.676Z,65.49
2022-07-29T20:56:42.966Z,66.10
2022-07-29T20:59:11.897Z,66.89
2022-07-29T21:01:41.460Z,65.87
2022-07-29T21:04:12.520Z,66.81
2022-07-29T21:06:41.712Z,67.01
2022-07-29T21:09:11.516Z,67.20
2022-07-29T21:11:43.337Z,67.07
2022-07-29T21:14:22.440Z,66.65
2022-07-29T21:16:52.287Z,67.30
2022-07-29T21:19:22.857Z,68.78
2022-07-29T21:21:52.358Z,68.51
2022-07-29T21:24:21.382Z,68.41
2022-07-29T21:27:04.931Z,69.71
2022-07-29T21:29:38.824Z,69.97
2022-07-29T21:32:08.199Z,70.64
2022-07-29T21:34:38.740Z,70.14
2022-07-29T21:37:10.044Z,70.37
2022-07-29T21:39:39.099Z,70.92
2022-07-29T21:42:08.841Z,70.83
2022-07-29T21:44:41.129Z,71.36
2022-07-29T21:47:11.890Z,71.88
2022-07-29T21:49:42.544Z,71.87
2022-07-29T21:52:11.825Z,71.30
2022-07-29T21:54:41.697Z,72.04
2022-07-29T21:57:11.028Z,72.34
2022-07-29T21:59:39.948Z,71.28
2022-07-29T22:02:09.383Z,71.21
2022-07-29T22:04:39.057Z,70.64
2022-07-29T22:07:09.826Z,70.61
2022-07-29T22:09:39.313Z,70.82
2022-07-29T22:12:08.784Z,70.91
2022-07-29T22:14:37.831Z,70.53
2022-07-29T22:17:08.059Z,70.90
2022-07-29T22:19:37.422Z,71.16
2022-07-29T22:22:06.228Z,71.85
2022-07-29T22:24:36.868Z,71.86
2022-07-29T22:27:06.200Z,71.63
2022-07-29T22:29:35.201Z,71.38
2022-07-29T22:32:04.810Z,71.25
2022-07-29T22:34:38.004Z,71.64
2022-07-29T22:37:07.574Z,71.28
2022-07-29T22:39:38.138Z,71.00
2022-07-29T22:42:07.609Z,70.82
2022-07-29T22:44:36.797Z,70.61
2022-07-29T22:47:06.442Z,70.63
2022-07-29T22:49:35.820Z,70.70
2022-07-29T22:52:05.559Z,70.28
2022-07-29T22:54:34.635Z,70.34
2022-07-29T22:57:05.471Z,70.32
2022-07-29T22:59:34.843Z,71.00
2022-07-29T23:02:04.022Z,70.97
2022-07-29T23:04:32.950Z,71.57
2022-07-29T23:07:02.569Z,70.21
2022-07-29T23:09:31.874Z,69.98
2022-07-29T23:12:00.976Z,70.35
2022-07-29T23:14:31.607Z,70.25
2022-07-29T23:17:00.745Z,70.55
2022-07-29T23:19:29.779Z,70.27
2022-07-29T23:21:59.172Z,69.52
2022-07-29T23:24:28.323Z,69.76
2022-07-29T23:26:57.707Z,70.12
2022-07-29T23:29:27.067Z,69.83
2022-07-29T23:31:57.590Z,70.22
2022-07-29T23:34:26.972Z,70.66
2022-07-29T23:36:56.495Z,70.25
2022-07-29T23:39:25.534Z,70.23
2022-07-29T23:41:54.483Z,70.70
2022-07-29T23:44:23.814Z,70.39
2022-07-29T23:46:52.818Z,70.21
2022-07-29T23:49:23.304Z,69.96
2022-07-29T23:51:52.793Z,69.95
2022-07-29T23:54:21.641Z,70.91
2022-07-29T23:56:50.998Z,71.53
2022-07-29T23:59:20.122Z,71.15
